Porto Amazonas, Brazil
Current Conditions -  °F | °C
As of 2:00 PM on Monday 20 Oct 2014 (Local Time) from SBBI Reporting Station
Overcast Overcast  
Wind Chill: 68°   Ceiling: 3500
Heat Index: 68°   Visibility: 6mi
Dew Point: 61°   Wind: 5mph
Humidity: 78%   Direction: 100°E
Pressure: 30.12"   Gusts: NA
Location:  25.55°S, 49.9°W
Report Text: SBBI 201700Z 10004KT 9999 SCT015 OVC035 20/16 Q1020
Loading
Personal Weather Stations






























Interactive Weather Map
Tropical Storm Tracking
New forecast layout! Learn more

10-Day Weather Forecast

Advertisements
Track Severe Weather on mobile